Time;durP1;ratioP1;P1;durP2;ratioP2;P2;SDS_P1;SDS_P2;PMS_P1;PMS_P2;Temp;Humidity;BMP_temperature;BMP_pressure;BME280_temperature;BME280_humidity;BME280_pressure;Samples;Min_cycle;Max_cycle;Signal;HPM_P1;HPM_P2
2022/06/23 00:02:09;;;;;;;20.73;10.25;;;20.70;99.90;;;;;;4987036;28;20081;-73
2022/06/23 00:04:42;;;;;;;21.38;11.40;;;20.80;99.90;;;;;;4974321;28;20042;-73
2022/06/23 00:07:20;;;;;;;21.88;11.07;;;20.80;99.90;;;;;;4985814;28;20057;-73
2022/06/23 00:09:45;;;;;;;19.08;11.60;;;20.70;99.90;;;;;;4969807;28;20031;-73
2022/06/23 00:12:18;;;;;;;22.58;12.45;;;20.70;99.90;;;;;;4986252;28;20446;-73
2022/06/23 00:14:46;;;;;;;18.52;11.93;;;20.80;99.90;;;;;;4986179;28;20057;-73
2022/06/23 00:17:26;;;;;;;20.73;12.65;;;20.80;99.90;;;;;;4984228;28;20117;-73
2022/06/23 00:19:53;;;;;;;17.80;13.02;;;20.80;99.90;;;;;;4980667;28;20030;-73
2022/06/23 00:22:24;;;;;;;20.08;13.02;;;20.80;99.90;;;;;;4976529;28;20113;-73
2022/06/23 00:24:55;;;;;;;20.75;13.77;;;20.80;99.90;;;;;;4983450;28;20541;-73
2022/06/23 00:27:22;;;;;;;22.30;14.20;;;20.80;99.90;;;;;;4987447;28;20068;-73
2022/06/23 00:29:48;;;;;;;23.08;14.82;;;20.80;99.90;;;;;;4978571;28;20041;-73
2022/06/23 00:32:15;;;;;;;20.67;14.18;;;20.80;99.90;;;;;;4981464;28;20044;-73
2022/06/23 00:34:43;;;;;;;23.13;15.27;;;20.70;99.90;;;;;;4977665;28;20040;-73
2022/06/23 00:37:09;;;;;;;28.42;15.00;;;20.70;99.90;;;;;;4980866;28;20046;-73
2022/06/23 00:39:36;;;;;;;24.17;15.15;;;20.70;99.90;;;;;;4988350;28;20035;-73
2022/06/23 00:42:05;;;;;;;42.67;16.23;;;20.70;99.90;;;;;;5007400;28;20045;-73
2022/06/23 00:44:35;;;;;;;37.25;16.20;;;20.70;99.90;;;;;;5003901;28;20101;-73
2022/06/23 00:47:07;;;;;;;21.90;14.98;;;20.70;99.90;;;;;;5001430;28;20085;-73
2022/06/23 00:49:48;;;;;;;25.38;15.60;;;20.60;99.90;;;;;;5006702;28;20121;-73
2022/06/23 00:52:20;;;;;;;;;;;20.60;99.90;;;;;;5006114;28;20057;-73
2022/06/23 00:54:52;;;;;;;23.02;14.63;;;20.60;99.90;;;;;;5004079;28;19916;-73
2022/06/23 00:57:31;;;;;;;21.52;13.73;;;20.60;99.90;;;;;;5007979;28;20026;-73
2022/06/23 01:00:00;;;;;;;20.65;13.25;;;20.60;99.90;;;;;;5008527;28;20040;-73
2022/06/23 01:02:35;;;;;;;19.20;13.25;;;20.60;99.90;;;;;;5001795;28;20120;-73
2022/06/23 01:05:05;;;;;;;19.40;13.27;;;20.60;99.90;;;;;;5001576;28;20026;-73
2022/06/23 01:07:43;;;;;;;21.73;13.60;;;20.60;99.90;;;;;;5005354;28;20513;-73
2022/06/23 01:10:24;;;;;;;22.08;14.18;;;20.60;99.90;;;;;;5005549;28;20037;-73
2022/06/23 01:12:57;;;;;;;21.15;13.32;;;20.60;99.90;;;;;;4997204;28;20068;-73
2022/06/23 01:15:41;;;;;;;24.55;14.02;;;20.60;99.90;;;;;;5008735;28;20348;-73
2022/06/23 01:18:41;;;;;;;23.27;13.98;;;20.60;99.90;;;;;;5007816;28;20022;-73
2022/06/23 01:21:27;;;;;;;25.00;14.40;;;20.60;99.90;;;;;;4946314;29;20050;-73
2022/06/23 01:24:23;;;;;;;24.35;14.35;;;20.60;99.90;;;;;;4943774;29;20058;-73
2022/06/23 01:26:54;;;;;;;27.80;14.75;;;20.60;99.90;;;;;;4947311;29;20043;-73
2022/06/23 01:29:33;;;;;;;26.67;14.55;;;20.50;99.90;;;;;;4947997;28;20050;-73
2022/06/23 01:32:22;;;;;;;20.38;14.25;;;20.50;99.90;;;;;;4946801;28;20065;-73
2022/06/23 01:35:00;;;;;;;19.50;15.10;;;20.60;99.90;;;;;;4947320;29;20039;-73
2022/06/23 01:37:56;;;;;;;22.10;15.15;;;20.60;99.90;;;;;;4948425;29;20062;-73
2022/06/23 01:40:34;;;;;;;25.83;14.75;;;20.60;99.90;;;;;;4946941;29;20446;-73
2022/06/23 01:43:15;;;;;;;19.35;14.23;;;20.60;99.90;;;;;;4947620;29;20110;-73
2022/06/23 01:45:43;;;;;;;32.38;15.52;;;20.60;99.90;;;;;;4947405;29;20438;-73
2022/06/23 01:48:15;;;;;;;22.02;14.75;;;20.60;99.90;;;;;;4941297;29;20043;-73
2022/06/23 01:50:51;;;;;;;22.33;13.50;;;20.60;99.90;;;;;;4943627;29;20510;-73
2022/06/23 01:53:16;;;;;;;23.80;14.73;;;20.70;99.90;;;;;;4944651;29;20114;-73
2022/06/23 01:56:03;;;;;;;18.75;13.27;;;20.70;99.90;;;;;;4946293;29;20122;-73
2022/06/23 01:58:53;;;;;;;20.40;13.48;;;20.70;99.90;;;;;;4991209;28;20045;-73
2022/06/23 02:01:45;;;;;;;22.02;13.93;;;20.60;99.90;;;;;;5002730;28;20066;-73
2022/06/23 02:04:18;;;;;;;22.70;13.13;;;20.60;99.90;;;;;;4988799;28;20456;-73
2022/06/23 02:06:51;;;;;;;21.40;13.30;;;20.70;99.90;;;;;;5001204;28;20053;-73
2022/06/23 02:09:26;;;;;;;24.00;12.60;;;20.60;99.90;;;;;;5003569;28;20018;-73
2022/06/23 02:11:52;;;;;;;27.27;14.00;;;20.60;99.90;;;;;;5004790;28;20030;-73
2022/06/23 02:14:45;;;;;;;22.05;13.50;;;20.60;99.90;;;;;;5000965;28;20034;-73
2022/06/23 02:17:30;;;;;;;25.67;15.40;;;20.60;99.90;;;;;;5002093;28;20059;-73
2022/06/23 02:20:16;;;;;;;25.17;14.38;;;20.60;99.90;;;;;;4999498;28;20041;-75
2022/06/23 02:22:45;;;;;;;22.50;13.38;;;20.60;99.90;;;;;;4996924;28;20034;-73
2022/06/23 02:25:13;;;;;;;22.48;13.68;;;20.60;99.90;;;;;;5006732;28;20049;-73
2022/06/23 02:28:04;;;;;;;31.55;15.05;;;20.60;99.90;;;;;;5002203;28;20027;-73
2022/06/23 02:30:34;;;;;;;27.02;13.75;;;20.60;99.90;;;;;;5003400;28;20096;-73
2022/06/23 02:33:15;;;;;;;27.00;15.27;;;20.60;99.90;;;;;;5007236;28;20089;-73
2022/06/23 02:35:58;;;;;;;24.75;14.63;;;20.60;99.90;;;;;;5004411;28;20029;-73
2022/06/23 02:38:30;;;;;;;26.55;15.77;;;20.60;99.90;;;;;;5003643;28;20026;-73
2022/06/23 02:41:18;;;;;;;26.00;15.10;;;20.60;99.90;;;;;;5001549;28;20058;-73
2022/06/23 02:44:04;;;;;;;26.42;15.77;;;20.50;99.90;;;;;;5009744;28;20625;-73
2022/06/23 02:46:35;;;;;;;23.30;15.90;;;20.50;99.90;;;;;;4996244;28;20076;-73
2022/06/23 02:49:28;;;;;;;26.95;15.35;;;20.50;99.90;;;;;;5008048;28;20089;-73
2022/06/23 02:52:30;;;;;;;29.95;16.13;;;20.50;99.90;;;;;;4997937;28;20034;-73
2022/06/23 02:55:11;;;;;;;27.77;15.82;;;20.60;99.90;;;;;;5002915;28;20028;-73
2022/06/23 02:57:46;;;;;;;39.45;16.92;;;20.50;99.90;;;;;;5008314;28;20072;-73
2022/06/23 03:00:34;;;;;;;29.98;15.70;;;20.50;99.90;;;;;;5004358;28;20663;-74
2022/06/23 03:03:14;;;;;;;33.20;16.58;;;20.50;98.90;;;;;;5018694;28;20061;-73
2022/06/23 03:05:58;;;;;;;30.13;14.65;;;20.40;99.50;;;;;;5005491;28;20045;-73
2022/06/23 03:08:43;;;;;;;26.02;14.25;;;20.40;99.60;;;;;;5007042;28;20049;-74
2022/06/23 03:11:14;;;;;;;23.63;13.55;;;20.30;98.70;;;;;;5006494;28;20026;-73
2022/06/23 03:13:52;;;;;;;22.10;12.57;;;20.20;98.30;;;;;;5008267;28;20451;-73
2022/06/23 03:16:35;;;;;;;24.83;13.52;;;20.10;98.40;;;;;;5006757;28;20396;-73
2022/06/23 03:19:14;;;;;;;21.63;13.23;;;20.00;99.40;;;;;;5008075;28;20481;-73
2022/06/23 03:21:52;;;;;;;22.42;12.30;;;20.00;99.40;;;;;;5006433;28;20034;-73
2022/06/23 03:24:27;;;;;;;23.73;13.60;;;19.90;99.80;;;;;;5004082;28;20022;-73
2022/06/23 03:26:58;;;;;;;17.48;12.90;;;19.90;99.70;;;;;;4991380;28;20045;-73
2022/06/23 03:29:28;;;;;;;21.52;13.73;;;19.90;99.90;;;;;;4996927;28;20105;-73
2022/06/23 03:32:06;;;;;;;20.08;13.13;;;20.00;99.90;;;;;;5006640;28;20048;-73
2022/06/23 03:35:03;;;;;;;21.77;13.05;;;20.00;99.90;;;;;;5002218;28;20042;-73
2022/06/23 03:37:51;;;;;;;22.90;13.73;;;20.00;99.90;;;;;;4993141;28;20057;-73
2022/06/23 03:43:31;;;;;;;21.33;12.88;;;20.10;99.90;;;;;;5010679;28;20040;-73
2022/06/23 03:46:13;;;;;;;19.30;12.18;;;20.10;99.90;;;;;;5005525;28;20049;-73
2022/06/23 03:48:47;;;;;;;21.90;12.57;;;20.10;99.90;;;;;;5007458;28;20205;-73
2022/06/23 03:51:28;;;;;;;25.42;12.65;;;20.20;99.90;;;;;;5001269;28;20531;-73
2022/06/23 03:54:17;;;;;;;23.98;12.82;;;20.20;99.90;;;;;;5005908;28;20030;-73
2022/06/23 03:56:55;;;;;;;24.83;12.88;;;20.30;99.90;;;;;;5006118;28;20512;-74
2022/06/23 03:59:30;;;;;;;23.15;12.60;;;20.30;99.90;;;;;;5000163;28;20049;-73
2022/06/23 04:02:09;;;;;;;19.30;12.52;;;20.30;99.90;;;;;;5000823;28;20117;-73
2022/06/23 04:05:00;;;;;;;23.70;12.85;;;20.30;99.90;;;;;;5002733;28;20547;-74
2022/06/23 04:07:29;;;;;;;26.27;13.10;;;20.30;99.90;;;;;;5003547;28;20045;-73
2022/06/23 04:10:08;;;;;;;24.38;13.30;;;20.30;99.90;;;;;;5006261;28;20023;-72
2022/06/23 04:12:36;;;;;;;22.45;13.02;;;20.30;99.90;;;;;;5003090;28;20049;-73
2022/06/23 04:15:18;;;;;;;26.95;12.63;;;20.40;99.90;;;;;;5010710;28;20022;-73
2022/06/23 04:18:12;;;;;;;25.75;12.95;;;20.30;99.90;;;;;;5007903;28;20045;-73
2022/06/23 04:20:50;;;;;;;32.45;13.15;;;20.40;99.90;;;;;;5007484;28;20038;-73
2022/06/23 04:23:30;;;;;;;23.13;13.07;;;20.40;99.90;;;;;;5007051;28;20040;-73
2022/06/23 04:26:01;;;;;;;25.00;12.90;;;20.40;99.90;;;;;;5006672;28;20066;-73
2022/06/23 04:28:40;;;;;;;23.65;12.45;;;20.40;99.90;;;;;;5006585;28;20080;-73
2022/06/23 04:31:07;;;;;;;24.35;13.38;;;20.40;99.90;;;;;;5008328;28;20034;-72
2022/06/23 04:33:39;;;;;;;21.58;13.15;;;20.30;99.90;;;;;;5021563;28;20038;-74
2022/06/23 04:36:05;;;;;;;25.88;13.70;;;20.30;99.30;;;;;;5009596;28;20022;-72
2022/06/23 04:38:50;;;;;;;23.00;13.75;;;20.20;99.60;;;;;;5004657;28;20454;-72
2022/06/23 04:41:27;;;;;;;24.40;13.77;;;20.30;99.90;;;;;;5003267;28;20050;-72
2022/06/23 04:43:58;;;;;;;19.25;13.90;;;20.30;99.90;;;;;;5006005;28;20404;-72
2022/06/23 04:46:30;;;;;;;24.95;14.13;;;20.30;99.90;;;;;;5005814;28;20410;-73
2022/06/23 04:49:04;;;;;;;21.75;14.43;;;20.30;99.90;;;;;;5006944;28;20019;-73
2022/06/23 04:51:37;;;;;;;26.58;15.27;;;20.30;99.90;;;;;;5007844;28;20034;-70
2022/06/23 04:54:12;;;;;;;26.10;15.63;;;20.30;99.90;;;;;;5009685;28;20081;-71
2022/06/23 04:56:47;;;;;;;29.33;15.25;;;20.30;99.90;;;;;;5004436;28;20053;-71
2022/06/23 04:59:34;;;;;;;30.33;15.82;;;20.30;99.90;;;;;;5009590;28;20034;-74
2022/06/23 05:02:19;;;;;;;27.05;14.80;;;20.30;99.90;;;;;;5007481;28;20088;-71
2022/06/23 05:05:14;;;;;;;20.52;14.77;;;20.30;99.90;;;;;;4999105;28;20045;-69
2022/06/23 05:07:50;;;;;;;23.10;14.77;;;20.30;99.90;;;;;;5003375;28;20057;-72
2022/06/23 05:10:25;;;;;;;25.75;15.10;;;20.30;99.90;;;;;;5004860;28;20026;-71
2022/06/23 05:13:01;;;;;;;27.20;14.88;;;20.30;99.90;;;;;;5000528;28;20045;-73
2022/06/23 05:15:46;;;;;;;27.48;14.77;;;20.30;98.90;;;;;;5000832;28;20056;-70
2022/06/23 05:18:17;;;;;;;21.55;14.10;;;20.30;98.90;;;;;;5004212;28;20029;-72
2022/06/23 05:20:59;;;;;;;25.23;14.63;;;20.30;99.60;;;;;;5003632;28;20097;-73
2022/06/23 05:23:29;;;;;;;26.73;14.60;;;20.30;99.80;;;;;;5000790;28;20045;-73
2022/06/23 05:26:04;;;;;;;23.08;15.05;;;20.30;99.90;;;;;;5003755;28;20042;-71
2022/06/23 05:28:35;;;;;;;23.92;14.02;;;20.40;99.90;;;;;;5001699;28;20034;-71
2022/06/23 05:31:06;;;;;;;24.13;15.05;;;20.40;99.90;;;;;;4997896;28;20026;-72
2022/06/23 05:33:45;;;;;;;29.40;15.38;;;20.40;98.90;;;;;;5006207;28;20044;-74
2022/06/23 05:36:25;;;;;;;25.75;15.45;;;20.40;97.70;;;;;;5005368;28;20153;-73
2022/06/23 05:38:58;;;;;;;23.60;14.70;;;20.40;97.50;;;;;;5003371;28;20396;-72
2022/06/23 05:41:41;;;;;;;24.58;15.18;;;20.30;97.20;;;;;;5005258;28;20021;-72
2022/06/23 05:44:24;;;;;;;27.20;16.08;;;20.30;97.70;;;;;;5005445;28;20041;-72
2022/06/23 05:46:52;;;;;;;29.20;16.25;;;20.30;98.10;;;;;;5003384;28;20053;-71
2022/06/23 05:49:23;;;;;;;23.45;15.80;;;20.20;98.00;;;;;;5006065;28;20026;-71
2022/06/23 05:51:59;;;;;;;26.92;15.60;;;20.20;98.90;;;;;;5003740;28;20639;-71
2022/06/23 05:54:33;;;;;;;28.70;16.17;;;20.20;99.10;;;;;;5005998;28;20034;-71
2022/06/23 05:57:10;;;;;;;28.40;15.63;;;20.20;99.50;;;;;;5007457;28;20493;-72
2022/06/23 05:59:45;;;;;;;27.98;15.43;;;20.30;99.50;;;;;;5006771;28;20492;-72
2022/06/23 06:02:23;;;;;;;25.70;15.48;;;20.20;98.60;;;;;;5008190;28;20061;-72
2022/06/23 06:04:55;;;;;;;27.17;15.35;;;20.20;98.90;;;;;;5007551;28;20037;-71
2022/06/23 06:07:27;;;;;;;26.33;15.10;;;20.30;99.40;;;;;;4999714;28;20038;-72
2022/06/23 06:09:54;;;;;;;33.92;15.98;;;20.30;99.70;;;;;;5005199;28;20060;-71
2022/06/23 06:12:47;;;;;;;26.15;15.15;;;20.40;99.10;;;;;;5003267;28;20489;-71
2022/06/23 06:15:16;;;;;;;26.58;15.23;;;20.40;99.30;;;;;;4999971;28;20096;-72
2022/06/23 06:17:42;;;;;;;25.75;15.50;;;20.50;99.50;;;;;;5004108;28;20027;-72
2022/06/23 06:20:10;;;;;;;23.05;15.23;;;20.60;99.60;;;;;;5004010;28;20044;-72
2022/06/23 06:23:01;;;;;;;22.38;13.95;;;20.70;99.40;;;;;;5004333;28;20026;-71
2022/06/23 06:25:34;;;;;;;;;;;20.70;97.80;;;;;;5004743;28;20056;-72
2022/06/23 06:28:31;;;;;;;28.75;14.38;;;20.80;98.60;;;;;;5004725;28;19917;-72
2022/06/23 06:31:23;;;;;;;21.35;11.90;;;20.80;98.70;;;;;;4984728;28;20041;-72
2022/06/23 06:33:52;;;;;;;28.83;13.18;;;20.80;98.00;;;;;;5000625;28;20046;-71
2022/06/23 06:36:40;;;;;;;23.42;12.50;;;20.90;97.80;;;;;;5005794;28;20752;-72
2022/06/23 06:39:22;;;;;;;20.83;12.73;;;21.10;97.30;;;;;;5004263;28;20033;-72
2022/06/23 06:41:56;;;;;;;21.60;11.52;;;21.40;96.90;;;;;;5002889;28;20045;-72
2022/06/23 06:44:23;;;;;;;20.83;11.77;;;21.50;96.40;;;;;;5005748;28;20432;-72
2022/06/23 06:46:49;;;;;;;17.42;11.35;;;21.60;95.80;;;;;;5000141;28;20558;-72
2022/06/23 06:49:20;;;;;;;20.38;12.82;;;21.70;95.80;;;;;;5003502;28;20029;-72
2022/06/23 06:51:47;;;;;;;14.88;11.82;;;21.70;96.30;;;;;;5003362;28;20038;-72
2022/06/23 06:54:33;;;;;;;20.90;12.82;;;21.70;95.70;;;;;;5006283;28;20034;-72
2022/06/23 06:57:04;;;;;;;21.35;12.15;;;21.70;95.60;;;;;;5003159;28;20032;-72
2022/06/23 07:00:00;;;;;;;20.58;13.40;;;21.70;96.00;;;;;;4997724;28;20045;-72
2022/06/23 07:02:35;;;;;;;19.30;14.57;;;21.70;95.60;;;;;;5002092;28;20022;-72
2022/06/23 07:05:06;;;;;;;22.38;15.82;;;21.80;95.00;;;;;;5001544;28;20443;-73
2022/06/23 07:07:40;;;;;;;21.33;15.45;;;21.80;95.00;;;;;;5003559;28;20042;-72
2022/06/23 07:10:16;;;;;;;22.95;15.50;;;21.80;94.60;;;;;;5005003;28;20022;-72
2022/06/23 07:13:04;;;;;;;21.67;14.70;;;21.90;94.50;;;;;;5000879;28;20041;-73
2022/06/23 07:15:43;;;;;;;17.67;11.75;;;21.90;94.60;;;;;;4998800;28;20087;-71
2022/06/23 07:18:44;;;;;;;18.55;10.68;;;21.90;94.50;;;;;;5005475;28;20026;-72
2022/06/23 07:21:27;;;;;;;14.77;9.40;;;22.30;92.90;;;;;;4943151;28;20043;-72
2022/06/23 07:24:01;;;;;;;13.90;8.48;;;24.10;84.20;;;;;;4942058;28;20043;-72
2022/06/23 07:26:45;;;;;;;11.27;7.72;;;24.90;76.60;;;;;;4940988;28;20106;-72
2022/06/23 07:29:39;;;;;;;11.50;7.70;;;26.10;73.10;;;;;;4946085;28;20130;-72
2022/06/23 07:32:36;;;;;;;10.52;6.38;;;25.30;76.70;;;;;;4941612;28;20098;-73
2022/06/23 07:35:37;;;;;;;8.35;6.15;;;24.50;81.90;;;;;;4946786;28;20058;-72
2022/06/23 07:38:18;;;;;;;10.05;6.28;;;24.30;83.10;;;;;;4889667;29;20049;-72
2022/06/23 07:40:53;;;;;;;13.20;6.57;;;23.70;86.50;;;;;;4889436;29;20043;-73
2022/06/23 07:43:32;;;;;;;12.68;5.78;;;23.50;88.30;;;;;;4888083;29;20040;-72
2022/06/23 07:45:59;;;;;;;10.40;5.68;;;23.30;86.70;;;;;;4889221;29;20044;-73
2022/06/23 07:48:27;;;;;;;9.68;4.80;;;23.10;87.20;;;;;;4889607;29;20120;-72
2022/06/23 07:50:54;;;;;;;8.10;4.82;;;22.90;87.20;;;;;;4889122;29;20874;-72
2022/06/23 07:53:27;;;;;;;6.82;4.40;;;22.80;87.90;;;;;;4889330;29;20083;-72
2022/06/23 07:55:53;;;;;;;8.25;4.68;;;22.80;89.00;;;;;;4919964;29;20043;-71
2022/06/23 07:58:27;;;;;;;9.27;4.50;;;22.70;88.60;;;;;;4936204;29;20086;-72
2022/06/23 08:01:15;;;;;;;10.18;4.70;;;22.70;88.70;;;;;;4924017;29;20123;-72
2022/06/23 08:03:43;;;;;;;7.47;4.53;;;22.80;90.00;;;;;;4920949;29;20031;-72
2022/06/23 08:06:13;;;;;;;6.90;4.22;;;22.90;89.70;;;;;;4935085;29;20134;-72
2022/06/23 08:08:43;;;;;;;8.05;3.85;;;23.00;90.10;;;;;;4924790;29;20511;-74
2022/06/23 08:14:08;;;;;;;8.23;3.55;;;23.70;83.20;;;;;;4947724;28;20085;-73
2022/06/23 08:16:49;;;;;;;7.70;4.10;;;23.80;79.50;;;;;;5002085;28;20026;-72
2022/06/23 08:19:40;;;;;;;11.75;4.78;;;23.60;82.30;;;;;;5003854;28;20125;-73
2022/06/23 08:22:17;;;;;;;11.10;5.20;;;23.40;85.10;;;;;;5003658;28;20033;-72
2022/06/23 08:24:48;;;;;;;15.27;5.80;;;23.30;85.90;;;;;;5005286;28;20062;-72
2022/06/23 08:27:19;;;;;;;;;;;23.40;86.80;;;;;;5007145;28;20045;-73
2022/06/23 08:30:06;;;;;;;14.80;6.28;;;23.70;86.50;;;;;;5002645;28;19920;-72
2022/06/23 08:32:33;;;;;;;14.38;6.28;;;23.80;84.90;;;;;;5009754;28;20050;-74
2022/06/23 08:35:05;;;;;;;13.25;6.57;;;23.70;78.80;;;;;;5004905;28;20084;-72
2022/06/23 08:38:00;;;;;;;14.73;6.30;;;23.70;80.00;;;;;;5002682;28;20088;-71
2022/06/23 08:40:31;;;;;;;12.13;6.07;;;23.60;83.00;;;;;;5003778;28;20044;-72
2022/06/23 08:43:12;;;;;;;13.70;5.18;;;23.60;81.40;;;;;;5006741;28;20492;-72
2022/06/23 08:45:50;;;;;;;15.43;5.60;;;23.80;81.10;;;;;;5004372;28;20607;-72
2022/06/23 08:48:28;;;;;;;10.38;5.57;;;24.10;78.10;;;;;;5006217;28;20031;-70
2022/06/23 08:51:20;;;;;;;14.73;5.40;;;24.10;78.00;;;;;;5006702;28;20037;-72
2022/06/23 08:54:21;;;;;;;9.63;5.15;;;24.10;78.00;;;;;;5004853;28;20066;-72
2022/06/23 08:57:07;;;;;;;11.25;5.28;;;24.30;75.70;;;;;;5006122;28;20048;-72
2022/06/23 08:59:39;;;;;;;14.23;5.63;;;24.00;79.30;;;;;;5002432;28;20069;-72
2022/06/23 09:02:19;;;;;;;11.93;5.30;;;24.00;77.30;;;;;;5006419;28;20032;-73
2022/06/23 09:04:56;;;;;;;12.75;5.10;;;24.40;74.00;;;;;;5007582;28;20041;-71
2022/06/23 09:07:52;;;;;;;9.40;5.13;;;24.90;72.60;;;;;;5005157;28;20065;-72
2022/06/23 09:10:32;;;;;;;9.32;4.28;;;25.60;73.80;;;;;;4998158;28;20404;-71
2022/06/23 09:13:33;;;;;;;12.52;4.55;;;26.10;69.20;;;;;;5000432;28;20027;-71
2022/06/23 09:16:16;;;;;;;;;;;26.70;68.90;;;;;;5004646;28;20428;-72
2022/06/23 09:19:11;;;;;;;10.00;4.40;;;27.30;67.90;;;;;;5005037;28;19951;-73
2022/06/23 09:21:53;;;;;;;10.70;4.72;;;27.80;63.40;;;;;;5002622;28;20026;-71
2022/06/23 09:24:37;;;;;;;10.65;4.95;;;27.30;67.00;;;;;;5007428;28;20062;-72
2022/06/23 09:27:12;;;;;;;10.55;4.88;;;26.90;67.50;;;;;;4997064;28;20084;-72
2022/06/23 09:29:50;;;;;;;10.93;4.68;;;27.10;67.30;;;;;;5000211;28;20033;-72
2022/06/23 09:32:49;;;;;;;8.52;3.83;;;28.30;61.50;;;;;;5005652;28;20575;-72
2022/06/23 09:35:30;;;;;;;8.50;3.92;;;28.80;57.50;;;;;;5004135;28;20032;-72
2022/06/23 09:38:01;;;;;;;;;;;28.50;57.10;;;;;;4997712;28;20079;-72
2022/06/23 09:40:48;;;;;;;9.80;3.45;;;28.30;53.50;;;;;;5003780;28;19909;-72
2022/06/23 09:43:59;;;;;;;11.25;4.00;;;30.10;50.50;;;;;;5005673;28;20034;-72
2022/06/23 09:46:36;;;;;;;9.55;4.22;;;29.90;53.10;;;;;;5001105;28;20054;-72
2022/06/23 09:49:39;;;;;;;12.55;4.40;;;28.80;58.20;;;;;;5001121;28;20531;-72
2022/06/23 09:52:23;;;;;;;8.32;4.05;;;28.70;56.40;;;;;;4993799;28;20046;-72
2022/06/23 09:55:22;;;;;;;8.13;3.72;;;27.90;60.00;;;;;;5000952;28;20035;-73
2022/06/23 09:58:22;;;;;;;8.20;3.92;;;27.40;60.90;;;;;;5001335;28;20034;-73
2022/06/23 10:01:10;;;;;;;8.85;4.38;;;27.20;62.60;;;;;;5000042;28;20034;-73
2022/06/23 10:04:00;;;;;;;7.97;4.10;;;26.80;63.70;;;;;;5006502;28;20072;-73
2022/06/23 10:06:43;;;;;;;7.43;3.63;;;26.40;65.70;;;;;;5002807;28;20038;-73
2022/06/23 10:09:42;;;;;;;7.43;3.70;;;28.20;59.60;;;;;;5004360;28;20121;-74
2022/06/23 10:12:29;;;;;;;10.80;4.30;;;31.10;50.30;;;;;;5006571;28;20034;-73
2022/06/23 10:15:27;;;;;;;5.57;2.75;;;33.00;45.70;;;;;;5008885;28;20030;-72
2022/06/23 10:18:30;;;;;;;7.93;3.00;;;33.00;42.80;;;;;;5001257;28;20038;-74
2022/06/23 10:20:55;;;;;;;7.00;3.20;;;31.60;46.80;;;;;;5001852;28;20378;-74
2022/06/23 10:23:39;;;;;;;6.50;3.20;;;30.80;49.90;;;;;;5002962;28;20511;-73
2022/06/23 10:26:11;;;;;;;7.97;3.03;;;29.90;51.90;;;;;;5003706;28;20038;-70
2022/06/23 10:29:21;;;;;;;7.22;3.10;;;30.20;50.80;;;;;;5002255;28;20885;-72
2022/06/23 10:33:40;;;;;;;9.60;3.20;;;30.40;48.30;;;;;;5104517;27;21339;-78
2022/06/23 10:36:35;;;;;;;6.40;2.90;;;29.50;53.40;;;;;;5105112;28;20054;-80
2022/06/23 10:39:26;;;;;;;7.85;2.60;;;28.70;52.90;;;;;;5103508;28;20114;-78
2022/06/23 10:42:29;;;;;;;6.18;2.63;;;28.80;48.30;;;;;;5101400;28;20027;-85
2022/06/23 10:45:36;;;;;;;7.20;2.50;;;29.20;47.20;;;;;;5104372;28;20032;-82
2022/06/23 10:48:13;;;;;;;7.47;2.33;;;28.30;50.10;;;;;;5103501;28;20506;-81
2022/06/23 10:50:48;;;;;;;6.28;2.65;;;27.80;50.70;;;;;;5103803;28;20057;-81
2022/06/23 10:53:22;;;;;;;6.88;2.65;;;27.90;51.20;;;;;;5104552;28;20040;-84
2022/06/23 10:56:00;;;;;;;6.45;2.60;;;28.20;51.00;;;;;;5104396;28;20028;-82
2022/06/23 10:58:44;;;;;;;10.60;3.72;;;27.50;51.60;;;;;;5102179;28;20032;-83
2022/06/23 11:01:55;;;;;;;7.10;2.40;;;27.00;54.20;;;;;;5098178;28;20100;-83
2022/06/23 11:05:12;;;;;;;9.30;3.15;;;27.10;54.50;;;;;;5006696;28;20535;-78
2022/06/23 11:07:53;;;;;;;6.30;2.42;;;31.00;46.00;;;;;;5022453;28;21955;-80
2022/06/23 11:10:59;;;;;;;3.97;1.52;;;33.80;35.20;;;;;;5023339;28;20038;-82
2022/06/23 11:14:24;;;;;;;5.70;2.00;;;35.30;32.90;;;;;;5022477;28;20053;-84
2022/06/23 11:17:00;;;;;;;7.65;2.05;;;33.00;36.10;;;;;;4967269;28;20043;-81
2022/06/23 11:20:07;;;;;;;8.48;2.50;;;31.20;41.80;;;;;;4974799;28;20042;-87
2022/06/23 11:22:42;;;;;;;7.68;2.45;;;31.20;42.90;;;;;;4976272;28;20433;-86
2022/06/23 11:25:20;;;;;;;5.68;2.30;;;30.80;44.30;;;;;;4966312;28;20031;-85
2022/06/23 11:28:00;;;;;;;5.38;2.45;;;30.20;47.00;;;;;;4969177;28;20042;-88
2022/06/23 11:30:56;;;;;;;5.63;2.63;;;29.70;47.30;;;;;;4978041;28;20042;-87
2022/06/23 11:33:31;;;;;;;5.82;2.20;;;29.10;49.00;;;;;;4988507;28;20061;-86
2022/06/23 11:36:20;;;;;;;6.35;2.15;;;31.00;46.60;;;;;;4982741;28;20023;-80
2022/06/23 11:39:11;;;;;;;4.55;1.70;;;33.60;35.60;;;;;;5022110;28;20041;-91
2022/06/23 11:42:04;;;;;;;5.57;1.80;;;35.30;32.50;;;;;;5044601;28;20043;-90
2022/06/23 11:44:49;;;;;;;5.13;1.70;;;36.50;30.60;;;;;;5026666;28;20503;-89
2022/06/23 11:47:39;;;;;;;9.82;1.65;;;37.40;29.70;;;;;;5023233;28;20595;-81
2022/06/23 11:50:29;;;;;;;7.43;1.65;;;37.10;27.10;;;;;;5026209;28;20072;-87
2022/06/23 11:52:55;;;;;;;6.05;1.55;;;36.50;29.30;;;;;;5032356;28;20095;-85
2022/06/23 11:55:25;;;;;;;5.47;1.80;;;34.50;33.50;;;;;;5079603;28;20024;-88
2022/06/23 11:58:05;;;;;;;5.05;2.10;;;33.80;34.20;;;;;;5090258;28;20119;-89
2022/06/23 12:01:03;;;;;;;7.63;1.75;;;33.20;37.40;;;;;;5089861;28;20106;-89
2022/06/23 12:04:00;;;;;;;3.85;1.40;;;35.20;34.20;;;;;;5087632;28;20071;-85
2022/06/23 12:07:00;;;;;;;5.95;1.33;;;37.00;28.90;;;;;;5089208;28;20020;-91
2022/06/23 12:09:25;;;;;;;5.30;1.50;;;38.10;25.20;;;;;;5088764;28;20099;-86
2022/06/23 12:11:51;;;;;;;3.58;1.40;;;38.80;25.40;;;;;;5090980;28;20168;-86
2022/06/23 12:14:18;;;;;;;5.85;1.30;;;38.50;24.80;;;;;;5081806;28;20097;-87
2022/06/23 12:16:53;;;;;;;3.83;1.10;;;38.60;25.20;;;;;;5082744;28;20043;-84
2022/06/23 12:19:23;;;;;;;3.65;1.27;;;39.40;23.80;;;;;;5089797;28;20071;-89
2022/06/23 12:22:01;;;;;;;4.10;1.30;;;40.00;22.50;;;;;;5091813;28;20467;-88
2022/06/23 12:24:32;;;;;;;7.30;1.40;;;40.20;23.80;;;;;;5089075;28;20032;-90
2022/06/23 12:27:12;;;;;;;6.35;1.50;;;39.20;24.30;;;;;;5091683;28;20731;-91
2022/06/23 12:29:50;;;;;;;3.38;1.30;;;37.00;26.80;;;;;;5087464;28;20581;-83
2022/06/23 12:32:28;;;;;;;4.38;1.10;;;36.10;26.70;;;;;;5089664;28;20062;-86
2022/06/23 12:35:04;;;;;;;5.07;1.30;;;36.70;25.10;;;;;;5090200;28;20036;-84
2022/06/23 12:37:42;;;;;;;4.68;1.10;;;37.60;24.60;;;;;;5092143;28;20027;-79
2022/06/23 12:40:07;;;;;;;5.72;1.30;;;38.10;23.70;;;;;;5090783;28;20023;-82
2022/06/23 12:42:35;;;;;;;6.05;1.30;;;38.20;24.30;;;;;;5087152;28;20403;-83
2022/06/23 12:45:38;;;;;;;3.13;1.10;;;38.90;24.40;;;;;;5086228;28;20035;-83
2022/06/23 12:48:45;;;;;;;4.22;1.10;;;38.20;24.50;;;;;;5085483;28;20042;-81
2022/06/23 12:51:29;;;;;;;5.05;1.60;;;37.90;23.70;;;;;;5000915;28;20069;-80
2022/06/23 12:54:12;;;;;;;5.82;1.30;;;36.90;25.00;;;;;;4995860;28;20485;-80
2022/06/23 12:56:58;;;;;;;3.47;1.20;;;37.40;24.50;;;;;;5004814;28;20038;-84
2022/06/23 12:59:24;;;;;;;5.03;1.30;;;38.00;24.80;;;;;;4995929;28;20029;-80
2022/06/23 13:02:20;;;;;;;4.93;1.40;;;36.90;26.50;;;;;;5000594;28;20038;-80
2022/06/23 13:05:04;;;;;;;3.88;1.20;;;37.00;24.30;;;;;;5000220;28;20065;-76
2022/06/23 13:07:55;;;;;;;7.15;1.20;;;36.80;24.70;;;;;;4997259;28;20041;-75
2022/06/23 13:10:47;;;;;;;4.10;1.30;;;36.70;25.30;;;;;;5004140;28;20031;-80
2022/06/23 13:13:37;;;;;;;6.90;1.40;;;36.30;25.60;;;;;;5000487;28;20140;-82
2022/06/23 13:16:15;;;;;;;6.70;1.40;;;35.80;26.20;;;;;;4997220;28;20068;-84
2022/06/23 13:18:47;;;;;;;3.80;1.25;;;35.30;26.80;;;;;;5006822;28;20029;-89
2022/06/23 13:21:19;;;;;;;5.35;1.30;;;34.50;28.20;;;;;;5018060;28;20109;-87
2022/06/23 13:23:45;;;;;;;4.25;1.30;;;33.80;29.60;;;;;;5087180;28;20030;-89
2022/06/23 13:26:16;;;;;;;3.75;1.10;;;33.50;30.40;;;;;;5088988;28;20464;-83
2022/06/23 13:28:44;;;;;;;4.40;1.30;;;33.60;30.50;;;;;;5088703;28;20028;-85
2022/06/23 13:31:49;;;;;;;5.57;1.30;;;33.50;30.60;;;;;;5086092;28;20031;-81
2022/06/23 13:34:28;;;;;;;4.03;1.10;;;33.60;30.00;;;;;;5093794;28;20028;-82
2022/06/23 13:36:58;;;;;;;6.68;1.40;;;33.30;30.40;;;;;;5099310;28;20053;-84
2022/06/23 13:39:55;;;;;;;5.32;1.50;;;32.90;31.10;;;;;;5089273;28;20035;-82
2022/06/23 13:42:44;;;;;;;7.22;1.40;;;32.90;30.10;;;;;;5085439;28;20024;-84
2022/06/23 13:46:05;;;;;;;3.70;1.33;;;32.70;31.20;;;;;;5088568;28;20027;-85
2022/06/23 13:48:55;;;;;;;5.97;1.65;;;32.00;30.30;;;;;;4998086;28;20424;-89
2022/06/23 13:51:28;;;;;;;5.10;1.42;;;31.50;31.40;;;;;;4997663;28;20050;-83